»·PEaware :: N805RJ F70-F70

N805RJ :: F70-F70

FLIGHT INFORMATION

Flight Status: Arrived
Operator: Privately registered:
United States
More flights under this callsign
Pilot: Rickie J. (22768)
Aircraft: CESSNA 177 CARDINAL
(C177)
More flights by this aircraft type
Origin: F70 French Valley
United States
Destination: F70 French Valley
United States
More flights between these airports :: More routes between these airports
Route: NIKKL V186 PDZ V21 GAREY
File this flight plan on PilotEdge
Remarks:
Altitude:
(Current/Filed)
10,500ft
Speed:
(Current/Filed)
149kts
Departed: 08-Jan-21 11:00 AM
Arrived: 08-Jan-21 11:33 AM
Distance/Time
Traveled:
1nm/0:33
Distance/Time
To Go:
Arrived

Flight Plot

Page will automatically refresh every two minutes.

Flight plan parsing failed; only flown route is shown


Map Options




Map Legend


Flown Route
Filed Route
Departure Airport
Arrival Airport
Navaid (VOR, NDB)
Fix

Horizontal Profiles

Position Reports

Time Latitude Longitude Heading Altitude Ground
Speed
08-Jan-21 10:27 33.578255 -117.129521 42 1353ft 0kts
08-Jan-21 10:28 33.578255 -117.129521 42 1353ft 0kts
08-Jan-21 10:29 33.578255 -117.129521 42 1353ft 0kts
08-Jan-21 10:30 33.578255 -117.129521 42 1353ft 0kts
08-Jan-21 10:31 33.578255 -117.129521 42 1353ft 0kts
08-Jan-21 10:32 33.578255 -117.129521 42 1353ft 0kts
08-Jan-21 10:33 33.578255 -117.129521 42 1353ft 0kts
08-Jan-21 10:34 33.578255 -117.129521 42 1353ft 0kts
08-Jan-21 10:35 33.578255 -117.129521 42 1353ft 0kts
08-Jan-21 10:36 33.578255 -117.129521 42 1353ft 0kts
08-Jan-21 10:37 33.578255 -117.129521 42 1353ft 0kts
08-Jan-21 10:38 33.578255 -117.129521 42 1353ft 0kts
08-Jan-21 10:39 33.578255 -117.129521 42 1353ft 0kts
08-Jan-21 10:40 33.578255 -117.129521 42 1353ft 0kts
08-Jan-21 10:41 33.578255 -117.129521 42 1353ft 0kts
08-Jan-21 10:42 33.578255 -117.129521 42 1353ft 0kts
08-Jan-21 10:43 33.578255 -117.129521 42 1353ft 0kts
08-Jan-21 10:44 33.578255 -117.129521 42 1353ft 0kts
08-Jan-21 10:45 33.578255 -117.129521 42 1353ft 0kts
08-Jan-21 10:46 33.578255 -117.129521 42 1353ft 0kts
08-Jan-21 10:47 33.578255 -117.129521 42 1353ft 0kts
08-Jan-21 10:48 33.578255 -117.129521 42 1353ft 0kts
08-Jan-21 10:49 33.578255 -117.129521 42 1353ft 0kts
08-Jan-21 10:50 33.578255 -117.129521 42 1353ft 0kts
08-Jan-21 10:51 33.578255 -117.129521 42 1353ft 0kts
08-Jan-21 10:52 33.578465 -117.129050 16 1353ft 3kts
08-Jan-21 10:53 33.579255 -117.127964 10 1353ft 6kts
08-Jan-21 10:54 33.581237 -117.127447 10 1353ft 7kts
08-Jan-21 10:55 33.582329 -117.127484 65 1353ft 0kts
08-Jan-21 10:56 33.582329 -117.127484 65 1353ft 0kts
08-Jan-21 10:57 33.582294 -117.126998 102 1353ft 0kts
08-Jan-21 10:58 33.582278 -117.126912 102 1353ft 2kts
08-Jan-21 11:00 33.575385 -117.128109 193 1353ft 85kts
08-Jan-21 11:01 33.547558 -117.135901 200 1795ft 105kts
08-Jan-21 11:02 33.518110 -117.143669 156 2303ft 130kts
08-Jan-21 11:03 33.530010 -117.113720 14 2297ft 143kts
08-Jan-21 11:04 33.565529 -117.103957 12 2877ft 104kts
08-Jan-21 11:05 33.591978 -117.105620 298 3299ft 121kts
08-Jan-21 11:06 33.568239 -117.127919 186 3290ft 135kts
08-Jan-21 11:07 33.530759 -117.133699 186 2798ft 137kts
08-Jan-21 11:08 33.492147 -117.136552 147 2286ft 139kts
08-Jan-21 11:09 33.505402 -117.110973 341 2301ft 124kts
08-Jan-21 11:10 33.537189 -117.117541 11 2298ft 116kts
08-Jan-21 11:11 33.567103 -117.110219 11 2301ft 103kts
08-Jan-21 11:12 33.594187 -117.103594 6 2267ft 93kts
08-Jan-21 11:13 33.594795 -117.123213 190 1823ft 90kts
08-Jan-21 11:14 33.573490 -117.128610 191 1354ft 85kts
08-Jan-21 11:14 33.552886 -117.133186 193 1839ft 101kts
08-Jan-21 11:16 33.519810 -117.141870 187 2818ft 106kts
08-Jan-21 11:17 33.520558 -117.119215 13 3305ft 126kts
08-Jan-21 11:17 33.551484 -117.110776 12 3293ft 138kts
08-Jan-21 11:18 33.589514 -117.100661 12 3292ft 140kts
08-Jan-21 11:19 33.611096 -117.121615 234 3290ft 147kts
08-Jan-21 11:20 33.572126 -117.134524 189 3290ft 141kts
08-Jan-21 11:21 33.534121 -117.139031 146 3290ft 133kts
08-Jan-21 11:22 33.546925 -117.111400 12 3292ft 128kts
08-Jan-21 11:23 33.580804 -117.102571 11 3058ft 131kts
08-Jan-21 11:24 33.612014 -117.110979 273 2552ft 138kts
08-Jan-21 11:25 33.582497 -117.131509 191 2307ft 127kts
08-Jan-21 11:26 33.548427 -117.139968 191 2305ft 121kts
08-Jan-21 11:27 33.535994 -117.121039 32 2301ft 94kts
08-Jan-21 11:28 33.559970 -117.114251 10 2302ft 78kts
08-Jan-21 11:29 33.581413 -117.109129 10 2299ft 75kts
08-Jan-21 11:30 33.600223 -117.114115 274 2117ft 83kts
08-Jan-21 11:31 33.582044 -117.126392 193 1366ft 76kts
08-Jan-21 11:32 33.574615 -117.128987 240 1353ft 0kts
08-Jan-21 11:33 33.574672 -117.129144 344 1353ft 2kts
08-Jan-21 11:34 33.576413 -117.128711 11 1353ft 10kts
08-Jan-21 11:35 33.579772 -117.127833 13 1353ft 13kts
08-Jan-21 11:36 33.582323 -117.127462 80 1353ft 0kts
08-Jan-21 11:37 33.582325 -117.127447 77 1353ft 0kts
08-Jan-21 11:38 33.582325 -117.127447 77 1353ft 0kts
08-Jan-21 11:39 33.582325 -117.127447 77 1353ft 0kts
08-Jan-21 11:40 33.582353 -117.127252 134 1353ft 0kts
08-Jan-21 11:41 33.582339 -117.127484 62 1353ft 0kts
08-Jan-21 11:42 33.582343 -117.127475 62 1353ft 0kts
08-Jan-21 11:43 33.582322 -117.127135 102 1353ft 3kts
08-Jan-21 11:44 33.582296 -117.126995 102 1353ft 0kts
08-Jan-21 11:45 33.581269 -117.126608 193 1353ft 25kts
08-Jan-21 11:46 33.558242 -117.132004 188 1675ft 92kts

Navigation Log

Ident Type
Flight plan parsing failed, navigation log unavailable